sensor_id;sensor_type;location;lat;lon;timestamp;P1;durP1;ratioP1;P2;durP2;ratioP2
8476;SDS011;4275;42.854;23.222;2023-07-09T00:00:54;12.30;;;11.90;;
8476;SDS011;4275;42.854;23.222;2023-07-09T00:03:21;12.68;;;12.27;;
8476;SDS011;4275;42.854;23.222;2023-07-09T00:05:48;12.65;;;12.25;;
8476;SDS011;4275;42.854;23.222;2023-07-09T00:08:21;12.60;;;12.20;;
8476;SDS011;4275;42.854;23.222;2023-07-09T00:10:52;12.00;;;11.60;;
8476;SDS011;4275;42.854;23.222;2023-07-09T00:13:19;12.30;;;11.90;;
8476;SDS011;4275;42.854;23.222;2023-07-09T00:15:47;11.52;;;11.23;;
8476;SDS011;4275;42.854;23.222;2023-07-09T00:18:15;11.38;;;11.07;;
8476;SDS011;4275;42.854;23.222;2023-07-09T00:20:42;9.98;;;9.68;;
8476;SDS011;4275;42.854;23.222;2023-07-09T00:23:09;9.80;;;9.50;;
8476;SDS011;4275;42.854;23.222;2023-07-09T00:25:38;10.00;;;9.70;;
8476;SDS011;4275;42.854;23.222;2023-07-09T00:28:08;10.13;;;9.82;;
8476;SDS011;4275;42.854;23.222;2023-07-09T00:30:39;10.13;;;9.82;;
8476;SDS011;4275;42.854;23.222;2023-07-09T00:33:07;10.50;;;10.20;;
8476;SDS011;4275;42.854;23.222;2023-07-09T00:35:41;11.10;;;10.80;;
8476;SDS011;4275;42.854;23.222;2023-07-09T00:38:12;10.88;;;10.57;;
8476;SDS011;4275;42.854;23.222;2023-07-09T00:40:45;11.50;;;11.20;;
8476;SDS011;4275;42.854;23.222;2023-07-09T00:43:15;11.40;;;11.10;;
8476;SDS011;4275;42.854;23.222;2023-07-09T00:45:42;11.73;;;11.43;;
8476;SDS011;4275;42.854;23.222;2023-07-09T00:48:11;11.48;;;11.18;;
8476;SDS011;4275;42.854;23.222;2023-07-09T00:50:45;11.40;;;11.10;;
8476;SDS011;4275;42.854;23.222;2023-07-09T00:53:18;11.00;;;10.70;;
8476;SDS011;4275;42.854;23.222;2023-07-09T00:55:49;10.75;;;10.45;;
8476;SDS011;4275;42.854;23.222;2023-07-09T00:58:21;11.63;;;11.32;;
8476;SDS011;4275;42.854;23.222;2023-07-09T01:00:53;11.88;;;11.48;;
8476;SDS011;4275;42.854;23.222;2023-07-09T01:03:23;12.20;;;11.80;;
8476;SDS011;4275;42.854;23.222;2023-07-09T01:05:56;12.57;;;12.18;;
8476;SDS011;4275;42.854;23.222;2023-07-09T01:08:24;13.50;;;13.10;;
8476;SDS011;4275;42.854;23.222;2023-07-09T01:10:55;13.32;;;12.93;;
8476;SDS011;4275;42.854;23.222;2023-07-09T01:13:24;12.77;;;12.38;;
8476;SDS011;4275;42.854;23.222;2023-07-09T01:15:51;13.30;;;12.90;;
8476;SDS011;4275;42.854;23.222;2023-07-09T01:18:19;12.20;;;11.80;;
8476;SDS011;4275;42.854;23.222;2023-07-09T01:20:46;12.30;;;11.90;;
8476;SDS011;4275;42.854;23.222;2023-07-09T01:23:14;11.93;;;11.52;;
8476;SDS011;4275;42.854;23.222;2023-07-09T01:25:43;11.60;;;11.30;;
8476;SDS011;4275;42.854;23.222;2023-07-09T01:28:17;10.98;;;10.68;;
8476;SDS011;4275;42.854;23.222;2023-07-09T01:30:45;11.10;;;10.80;;
8476;SDS011;4275;42.854;23.222;2023-07-09T01:33:19;9.90;;;9.60;;
8476;SDS011;4275;42.854;23.222;2023-07-09T01:35:46;9.93;;;9.63;;
8476;SDS011;4275;42.854;23.222;2023-07-09T01:38:15;9.80;;;9.50;;
8476;SDS011;4275;42.854;23.222;2023-07-09T01:43:51;8.40;;;8.20;;
8476;SDS011;4275;42.854;23.222;2023-07-09T01:46:18;9.20;;;9.00;;
8476;SDS011;4275;42.854;23.222;2023-07-09T01:52:08;10.00;;;9.70;;
8476;SDS011;4275;42.854;23.222;2023-07-09T01:54:36;10.57;;;10.27;;
8476;SDS011;4275;42.854;23.222;2023-07-09T01:57:14;10.70;;;10.40;;
8476;SDS011;4275;42.854;23.222;2023-07-09T02:03:05;10.02;;;9.73;;
8476;SDS011;4275;42.854;23.222;2023-07-09T02:05:32;10.45;;;10.15;;
8476;SDS011;4275;42.854;23.222;2023-07-09T02:08:00;9.70;;;9.40;;
8476;SDS011;4275;42.854;23.222;2023-07-09T02:17:12;9.70;;;9.40;;
8476;SDS011;4275;42.854;23.222;2023-07-09T02:19:40;9.50;;;9.20;;
8476;SDS011;4275;42.854;23.222;2023-07-09T02:22:07;9.50;;;9.20;;
8476;SDS011;4275;42.854;23.222;2023-07-09T02:24:35;8.60;;;8.40;;
8476;SDS011;4275;42.854;23.222;2023-07-09T02:27:03;11.00;;;10.70;;
8476;SDS011;4275;42.854;23.222;2023-07-09T02:29:31;11.00;;;10.70;;
8476;SDS011;4275;42.854;23.222;2023-07-09T02:31:59;11.45;;;11.15;;
8476;SDS011;4275;42.854;23.222;2023-07-09T02:34:29;10.73;;;10.43;;
8476;SDS011;4275;42.854;23.222;2023-07-09T02:36:56;10.48;;;10.18;;
8476;SDS011;4275;42.854;23.222;2023-07-09T02:39:25;9.80;;;9.50;;
8476;SDS011;4275;42.854;23.222;2023-07-09T02:41:52;9.77;;;9.48;;
8476;SDS011;4275;42.854;23.222;2023-07-09T02:44:19;9.98;;;9.68;;
8476;SDS011;4275;42.854;23.222;2023-07-09T02:46:46;11.40;;;11.10;;
8476;SDS011;4275;42.854;23.222;2023-07-09T02:49:14;11.43;;;11.13;;
8476;SDS011;4275;42.854;23.222;2023-07-09T02:51:42;11.50;;;11.20;;
8476;SDS011;4275;42.854;23.222;2023-07-09T02:54:09;11.60;;;11.30;;
8476;SDS011;4275;42.854;23.222;2023-07-09T02:56:36;12.70;;;12.30;;
8476;SDS011;4275;42.854;23.222;2023-07-09T02:59:04;13.50;;;13.10;;
8476;SDS011;4275;42.854;23.222;2023-07-09T03:01:31;13.65;;;13.25;;
8476;SDS011;4275;42.854;23.222;2023-07-09T03:03:59;14.15;;;13.65;;
8476;SDS011;4275;42.854;23.222;2023-07-09T03:09:50;14.98;;;14.48;;
8476;SDS011;4275;42.854;23.222;2023-07-09T03:12:17;15.25;;;14.65;;
8476;SDS011;4275;42.854;23.222;2023-07-09T03:14:47;15.40;;;14.80;;
8476;SDS011;4275;42.854;23.222;2023-07-09T03:17:14;15.07;;;14.50;;
8476;SDS011;4275;42.854;23.222;2023-07-09T03:26:28;15.00;;;14.40;;
8476;SDS011;4275;42.854;23.222;2023-07-09T03:32:19;14.93;;;14.43;;
8476;SDS011;4275;42.854;23.222;2023-07-09T03:38:10;14.63;;;14.13;;
8476;SDS011;4275;42.854;23.222;2023-07-09T03:43:27;15.60;;;15.00;;
8476;SDS011;4275;42.854;23.222;2023-07-09T03:46:00;16.80;;;16.10;;
8476;SDS011;4275;42.854;23.222;2023-07-09T03:48:33;17.75;;;16.95;;
8476;SDS011;4275;42.854;23.222;2023-07-09T03:54:09;18.10;;;17.20;;
8476;SDS011;4275;42.854;23.222;2023-07-09T03:57:36;19.30;;;18.30;;
8476;SDS011;4275;42.854;23.222;2023-07-09T04:03:26;20.52;;;19.33;;
8476;SDS011;4275;42.854;23.222;2023-07-09T04:05:53;20.85;;;19.65;;
8476;SDS011;4275;42.854;23.222;2023-07-09T04:08:20;21.02;;;19.83;;
8476;SDS011;4275;42.854;23.222;2023-07-09T04:10:47;21.13;;;19.92;;
8476;SDS011;4275;42.854;23.222;2023-07-09T04:13:14;21.38;;;20.08;;
8476;SDS011;4275;42.854;23.222;2023-07-09T04:15:41;21.35;;;20.05;;
8476;SDS011;4275;42.854;23.222;2023-07-09T04:18:08;23.10;;;21.70;;
8476;SDS011;4275;42.854;23.222;2023-07-09T04:20:36;23.27;;;21.77;;
8476;SDS011;4275;42.854;23.222;2023-07-09T04:23:06;22.88;;;21.38;;
8476;SDS011;4275;42.854;23.222;2023-07-09T04:25:33;23.30;;;21.80;;
8476;SDS011;4275;42.854;23.222;2023-07-09T04:31:15;22.75;;;21.25;;
8476;SDS011;4275;42.854;23.222;2023-07-09T04:33:48;23.45;;;21.85;;
8476;SDS011;4275;42.854;23.222;2023-07-09T04:39:41;24.83;;;23.17;;
8476;SDS011;4275;42.854;23.222;2023-07-09T04:42:08;24.67;;;23.08;;
8476;SDS011;4275;42.854;23.222;2023-07-09T04:44:44;26.27;;;24.58;;
8476;SDS011;4275;42.854;23.222;2023-07-09T04:47:12;23.98;;;22.38;;
8476;SDS011;4275;42.854;23.222;2023-07-09T04:49:40;23.98;;;22.38;;
8476;SDS011;4275;42.854;23.222;2023-07-09T05:01:43;22.85;;;21.35;;
8476;SDS011;4275;42.854;23.222;2023-07-09T05:04:10;23.67;;;22.08;;
8476;SDS011;4275;42.854;23.222;2023-07-09T05:06:37;22.90;;;21.40;;
8476;SDS011;4275;42.854;23.222;2023-07-09T05:09:04;21.55;;;20.15;;
8476;SDS011;4275;42.854;23.222;2023-07-09T05:11:34;22.23;;;20.75;;
8476;SDS011;4275;42.854;23.222;2023-07-09T05:14:02;20.08;;;18.77;;
8476;SDS011;4275;42.854;23.222;2023-07-09T05:16:30;21.10;;;19.80;;
8476;SDS011;4275;42.854;23.222;2023-07-09T05:18:59;20.65;;;19.35;;
8476;SDS011;4275;42.854;23.222;2023-07-09T05:21:29;19.45;;;18.25;;
8476;SDS011;4275;42.854;23.222;2023-07-09T05:23:59;19.75;;;18.55;;
8476;SDS011;4275;42.854;23.222;2023-07-09T05:26:34;19.75;;;18.65;;
8476;SDS011;4275;42.854;23.222;2023-07-09T05:29:02;19.55;;;18.35;;
8476;SDS011;4275;42.854;23.222;2023-07-09T05:31:29;21.80;;;20.50;;
8476;SDS011;4275;42.854;23.222;2023-07-09T05:34:00;20.20;;;19.00;;
8476;SDS011;4275;42.854;23.222;2023-07-09T05:36:30;20.23;;;19.02;;
8476;SDS011;4275;42.854;23.222;2023-07-09T05:39:03;19.67;;;18.58;;
8476;SDS011;4275;42.854;23.222;2023-07-09T05:41:32;20.73;;;19.52;;
8476;SDS011;4275;42.854;23.222;2023-07-09T05:44:02;20.30;;;19.10;;
8476;SDS011;4275;42.854;23.222;2023-07-09T05:46:35;18.35;;;17.35;;
8476;SDS011;4275;42.854;23.222;2023-07-09T05:49:03;19.25;;;18.15;;
8476;SDS011;4275;42.854;23.222;2023-07-09T05:51:30;18.77;;;17.67;;
8476;SDS011;4275;42.854;23.222;2023-07-09T05:54:03;18.83;;;17.73;;
8476;SDS011;4275;42.854;23.222;2023-07-09T05:56:35;18.73;;;17.63;;
8476;SDS011;4275;42.854;23.222;2023-07-09T05:59:03;18.83;;;17.73;;
8476;SDS011;4275;42.854;23.222;2023-07-09T06:01:30;19.10;;;18.00;;
8476;SDS011;4275;42.854;23.222;2023-07-09T06:04:03;18.83;;;17.73;;
8476;SDS011;4275;42.854;23.222;2023-07-09T06:06:32;19.25;;;18.15;;
8476;SDS011;4275;42.854;23.222;2023-07-09T06:09:05;18.70;;;17.60;;
8476;SDS011;4275;42.854;23.222;2023-07-09T06:11:34;18.70;;;17.60;;
8476;SDS011;4275;42.854;23.222;2023-07-09T06:14:04;20.10;;;19.00;;
8476;SDS011;4275;42.854;23.222;2023-07-09T06:16:36;19.27;;;18.17;;
8476;SDS011;4275;42.854;23.222;2023-07-09T06:19:04;19.20;;;18.10;;
8476;SDS011;4275;42.854;23.222;2023-07-09T06:21:35;19.77;;;18.67;;
8476;SDS011;4275;42.854;23.222;2023-07-09T06:24:05;19.00;;;17.90;;
8476;SDS011;4275;42.854;23.222;2023-07-09T06:26:37;19.25;;;18.15;;
8476;SDS011;4275;42.854;23.222;2023-07-09T06:29:05;19.60;;;18.40;;
8476;SDS011;4275;42.854;23.222;2023-07-09T06:31:38;19.65;;;18.45;;
8476;SDS011;4275;42.854;23.222;2023-07-09T06:34:07;18.90;;;17.80;;
8476;SDS011;4275;42.854;23.222;2023-07-09T06:36:36;19.52;;;18.33;;
8476;SDS011;4275;42.854;23.222;2023-07-09T06:39:06;19.75;;;18.55;;
8476;SDS011;4275;42.854;23.222;2023-07-09T06:41:40;20.15;;;18.85;;
8476;SDS011;4275;42.854;23.222;2023-07-09T06:44:07;20.85;;;19.55;;
8476;SDS011;4275;42.854;23.222;2023-07-09T06:46:36;19.90;;;18.70;;
8476;SDS011;4275;42.854;23.222;2023-07-09T06:49:06;19.85;;;18.65;;
8476;SDS011;4275;42.854;23.222;2023-07-09T06:51:36;20.20;;;18.90;;
8476;SDS011;4275;42.854;23.222;2023-07-09T06:54:05;20.42;;;19.13;;
8476;SDS011;4275;42.854;23.222;2023-07-09T06:56:35;21.48;;;20.08;;
8476;SDS011;4275;42.854;23.222;2023-07-09T06:59:07;21.17;;;19.77;;
8476;SDS011;4275;42.854;23.222;2023-07-09T07:01:36;21.05;;;19.65;;
8476;SDS011;4275;42.854;23.222;2023-07-09T07:04:05;21.90;;;20.50;;
8476;SDS011;4275;42.854;23.222;2023-07-09T07:06:38;21.67;;;20.27;;
8476;SDS011;4275;42.854;23.222;2023-07-09T07:09:05;23.95;;;22.40;;
8476;SDS011;4275;42.854;23.222;2023-07-09T07:11:35;21.98;;;20.48;;
8476;SDS011;4275;42.854;23.222;2023-07-09T07:14:02;23.23;;;21.63;;
8476;SDS011;4275;42.854;23.222;2023-07-09T07:16:31;22.83;;;21.23;;
8476;SDS011;4275;42.854;23.222;2023-07-09T07:18:57;22.30;;;20.80;;
8476;SDS011;4275;42.854;23.222;2023-07-09T07:21:24;22.65;;;21.15;;
8476;SDS011;4275;42.854;23.222;2023-07-09T07:23:51;23.20;;;21.60;;
8476;SDS011;4275;42.854;23.222;2023-07-09T07:26:18;24.17;;;22.55;;
8476;SDS011;4275;42.854;23.222;2023-07-09T07:28:45;23.38;;;21.80;;
8476;SDS011;4275;42.854;23.222;2023-07-09T07:31:13;22.63;;;21.13;;
8476;SDS011;4275;42.854;23.222;2023-07-09T07:33:41;23.33;;;21.83;;
8476;SDS011;4275;42.854;23.222;2023-07-09T07:36:09;23.38;;;21.88;;
8476;SDS011;4275;42.854;23.222;2023-07-09T07:38:37;23.40;;;21.90;;
8476;SDS011;4275;42.854;23.222;2023-07-09T07:41:07;23.20;;;21.70;;
8476;SDS011;4275;42.854;23.222;2023-07-09T07:43:37;23.85;;;22.33;;
8476;SDS011;4275;42.854;23.222;2023-07-09T07:46:07;23.13;;;21.67;;
8476;SDS011;4275;42.854;23.222;2023-07-09T07:48:37;23.60;;;22.10;;
8476;SDS011;4275;42.854;23.222;2023-07-09T07:51:09;24.85;;;23.25;;
8476;SDS011;4275;42.854;23.222;2023-07-09T07:53:36;24.38;;;22.77;;
8476;SDS011;4275;42.854;23.222;2023-07-09T07:56:09;23.20;;;21.70;;
8476;SDS011;4275;42.854;23.222;2023-07-09T07:58:37;23.63;;;22.13;;
8476;SDS011;4275;42.854;23.222;2023-07-09T08:01:07;26.42;;;24.73;;
8476;SDS011;4275;42.854;23.222;2023-07-09T08:03:36;24.80;;;23.20;;
8476;SDS011;4275;42.854;23.222;2023-07-09T08:06:06;25.15;;;23.55;;
8476;SDS011;4275;42.854;23.222;2023-07-09T08:08:38;24.23;;;22.63;;
8476;SDS011;4275;42.854;23.222;2023-07-09T08:11:08;25.02;;;23.42;;
8476;SDS011;4275;42.854;23.222;2023-07-09T08:13:37;25.08;;;23.48;;
8476;SDS011;4275;42.854;23.222;2023-07-09T08:16:07;23.60;;;22.10;;
8476;SDS011;4275;42.854;23.222;2023-07-09T08:18:37;24.40;;;22.90;;
8476;SDS011;4275;42.854;23.222;2023-07-09T08:21:08;25.08;;;23.48;;
8476;SDS011;4275;42.854;23.222;2023-07-09T08:23:35;24.33;;;22.80;;
8476;SDS011;4275;42.854;23.222;2023-07-09T08:26:04;24.85;;;23.33;;
8476;SDS011;4275;42.854;23.222;2023-07-09T08:28:31;24.48;;;22.88;;
8476;SDS011;4275;42.854;23.222;2023-07-09T08:30:58;24.90;;;23.30;;
8476;SDS011;4275;42.854;23.222;2023-07-09T08:33:26;23.83;;;22.33;;
8476;SDS011;4275;42.854;23.222;2023-07-09T08:35:53;23.45;;;21.95;;
8476;SDS011;4275;42.854;23.222;2023-07-09T08:38:22;24.98;;;23.38;;
8476;SDS011;4275;42.854;23.222;2023-07-09T08:40:53;24.25;;;22.65;;
8476;SDS011;4275;42.854;23.222;2023-07-09T08:43:27;23.92;;;22.42;;
8476;SDS011;4275;42.854;23.222;2023-07-09T08:46:03;24.70;;;23.10;;
8476;SDS011;4275;42.854;23.222;2023-07-09T08:48:37;24.88;;;23.27;;
8476;SDS011;4275;42.854;23.222;2023-07-09T08:51:10;24.77;;;23.17;;
8476;SDS011;4275;42.854;23.222;2023-07-09T08:53:44;24.25;;;22.65;;
8476;SDS011;4275;42.854;23.222;2023-07-09T08:56:15;23.75;;;22.25;;
8476;SDS011;4275;42.854;23.222;2023-07-09T08:58:43;22.92;;;21.42;;
8476;SDS011;4275;42.854;23.222;2023-07-09T09:01:16;23.90;;;22.40;;
8476;SDS011;4275;42.854;23.222;2023-07-09T09:03:47;24.80;;;23.20;;
8476;SDS011;4275;42.854;23.222;2023-07-09T09:06:17;25.45;;;23.85;;
8476;SDS011;4275;42.854;23.222;2023-07-09T09:08:50;25.30;;;23.70;;
8476;SDS011;4275;42.854;23.222;2023-07-09T09:11:26;24.73;;;23.13;;
8476;SDS011;4275;42.854;23.222;2023-07-09T09:14:01;24.77;;;23.17;;
8476;SDS011;4275;42.854;23.222;2023-07-09T09:16:33;25.05;;;23.45;;
8476;SDS011;4275;42.854;23.222;2023-07-09T09:19:06;24.17;;;22.58;;
8476;SDS011;4275;42.854;23.222;2023-07-09T09:21:42;25.75;;;24.05;;
8476;SDS011;4275;42.854;23.222;2023-07-09T09:24:14;25.95;;;24.25;;
8476;SDS011;4275;42.854;23.222;2023-07-09T09:26:44;25.65;;;23.95;;
8476;SDS011;4275;42.854;23.222;2023-07-09T09:29:12;25.73;;;24.02;;
8476;SDS011;4275;42.854;23.222;2023-07-09T09:31:41;26.92;;;25.13;;
8476;SDS011;4275;42.854;23.222;2023-07-09T09:34:18;26.95;;;25.20;;
8476;SDS011;4275;42.854;23.222;2023-07-09T09:36:46;26.38;;;24.67;;
8476;SDS011;4275;42.854;23.222;2023-07-09T09:39:15;25.70;;;24.00;;
8476;SDS011;4275;42.854;23.222;2023-07-09T09:41:43;27.23;;;25.52;;
8476;SDS011;4275;42.854;23.222;2023-07-09T09:44:17;25.15;;;23.45;;
8476;SDS011;4275;42.854;23.222;2023-07-09T09:46:47;27.30;;;25.50;;
8476;SDS011;4275;42.854;23.222;2023-07-09T09:49:14;26.48;;;24.77;;
8476;SDS011;4275;42.854;23.222;2023-07-09T09:51:42;26.30;;;24.65;;
8476;SDS011;4275;42.854;23.222;2023-07-09T09:54:13;27.52;;;25.83;;
8476;SDS011;4275;42.854;23.222;2023-07-09T09:56:47;27.10;;;25.40;;
8476;SDS011;4275;42.854;23.222;2023-07-09T09:59:17;25.48;;;23.88;;
8476;SDS011;4275;42.854;23.222;2023-07-09T10:01:46;26.17;;;24.58;;
8476;SDS011;4275;42.854;23.222;2023-07-09T10:04:16;24.92;;;23.33;;
8476;SDS011;4275;42.854;23.222;2023-07-09T10:06:46;25.65;;;24.05;;
8476;SDS011;4275;42.854;23.222;2023-07-09T10:09:19;26.30;;;24.60;;
8476;SDS011;4275;42.854;23.222;2023-07-09T10:11:53;26.50;;;24.80;;
8476;SDS011;4275;42.854;23.222;2023-07-09T10:14:31;25.77;;;24.10;;
8476;SDS011;4275;42.854;23.222;2023-07-09T10:17:05;24.75;;;23.15;;
8476;SDS011;4275;42.854;23.222;2023-07-09T10:19:41;25.58;;;23.88;;
8476;SDS011;4275;42.854;23.222;2023-07-09T10:22:17;25.95;;;24.25;;
8476;SDS011;4275;42.854;23.222;2023-07-09T10:24:54;24.38;;;22.77;;
8476;SDS011;4275;42.854;23.222;2023-07-09T10:27:29;24.92;;;23.30;;
8476;SDS011;4275;42.854;23.222;2023-07-09T10:32:50;26.30;;;24.52;;
8476;SDS011;4275;42.854;23.222;2023-07-09T10:35:31;26.10;;;24.35;;
8476;SDS011;4275;42.854;23.222;2023-07-09T10:38:07;25.27;;;23.58;;
8476;SDS011;4275;42.854;23.222;2023-07-09T10:40:47;26.70;;;24.90;;
8476;SDS011;4275;42.854;23.222;2023-07-09T10:43:18;25.63;;;23.92;;
8476;SDS011;4275;42.854;23.222;2023-07-09T10:45:51;26.08;;;24.38;;
8476;SDS011;4275;42.854;23.222;2023-07-09T10:48:27;25.73;;;24.02;;
8476;SDS011;4275;42.854;23.222;2023-07-09T10:51:00;24.92;;;23.23;;
8476;SDS011;4275;42.854;23.222;2023-07-09T10:53:29;26.35;;;24.60;;
8476;SDS011;4275;42.854;23.222;2023-07-09T10:56:07;25.92;;;24.15;;
8476;SDS011;4275;42.854;23.222;2023-07-09T10:58:38;26.50;;;24.75;;
8476;SDS011;4275;42.854;23.222;2023-07-09T11:01:11;26.90;;;25.10;;
8476;SDS011;4275;42.854;23.222;2023-07-09T11:03:42;25.23;;;23.42;;
8476;SDS011;4275;42.854;23.222;2023-07-09T11:06:16;25.52;;;23.73;;
8476;SDS011;4275;42.854;23.222;2023-07-09T11:08:47;24.98;;;23.27;;
8476;SDS011;4275;42.854;23.222;2023-07-09T11:11:23;26.98;;;25.17;;
8476;SDS011;4275;42.854;23.222;2023-07-09T11:13:58;25.50;;;23.70;;
8476;SDS011;4275;42.854;23.222;2023-07-09T11:16:30;25.33;;;23.52;;
8476;SDS011;4275;42.854;23.222;2023-07-09T11:19:01;25.98;;;24.17;;
8476;SDS011;4275;42.854;23.222;2023-07-09T11:21:30;24.85;;;23.15;;
8476;SDS011;4275;42.854;23.222;2023-07-09T11:23:58;25.80;;;24.00;;
8476;SDS011;4275;42.854;23.222;2023-07-09T11:26:28;25.27;;;23.48;;
8476;SDS011;4275;42.854;23.222;2023-07-09T11:29:06;24.65;;;22.92;;
8476;SDS011;4275;42.854;23.222;2023-07-09T11:31:41;26.40;;;24.60;;
8476;SDS011;4275;42.854;23.222;2023-07-09T11:34:15;25.27;;;23.58;;
8476;SDS011;4275;42.854;23.222;2023-07-09T11:36:47;26.48;;;24.67;;
8476;SDS011;4275;42.854;23.222;2023-07-09T11:39:17;24.92;;;23.23;;
8476;SDS011;4275;42.854;23.222;2023-07-09T11:41:48;26.15;;;24.35;;
8476;SDS011;4275;42.854;23.222;2023-07-09T11:44:16;26.33;;;24.52;;
8476;SDS011;4275;42.854;23.222;2023-07-09T11:46:52;25.98;;;24.27;;
8476;SDS011;4275;42.854;23.222;2023-07-09T11:49:27;26.17;;;24.48;;
8476;SDS011;4275;42.854;23.222;2023-07-09T11:52:00;31.77;;;28.63;;
8476;SDS011;4275;42.854;23.222;2023-07-09T11:54:33;25.83;;;24.02;;
8476;SDS011;4275;42.854;23.222;2023-07-09T11:57:04;26.02;;;24.23;;
8476;SDS011;4275;42.854;23.222;2023-07-09T11:59:39;27.25;;;25.35;;
8476;SDS011;4275;42.854;23.222;2023-07-09T12:02:09;25.98;;;24.17;;
8476;SDS011;4275;42.854;23.222;2023-07-09T12:04:42;26.77;;;24.88;;
8476;SDS011;4275;42.854;23.222;2023-07-09T12:07:12;25.48;;;23.67;;
8476;SDS011;4275;42.854;23.222;2023-07-09T12:09:43;26.23;;;24.42;;
8476;SDS011;4275;42.854;23.222;2023-07-09T12:12:19;25.83;;;24.02;;
8476;SDS011;4275;42.854;23.222;2023-07-09T12:14:47;25.95;;;24.15;;
8476;SDS011;4275;42.854;23.222;2023-07-09T12:17:14;27.27;;;25.38;;
8476;SDS011;4275;42.854;23.222;2023-07-09T12:19:41;28.27;;;26.38;;
8476;SDS011;4275;42.854;23.222;2023-07-09T12:22:10;26.63;;;24.73;;
8476;SDS011;4275;42.854;23.222;2023-07-09T12:24:43;27.27;;;25.35;;
8476;SDS011;4275;42.854;23.222;2023-07-09T12:27:17;28.20;;;26.20;;
8476;SDS011;4275;42.854;23.222;2023-07-09T12:29:49;25.63;;;23.83;;
8476;SDS011;4275;42.854;23.222;2023-07-09T12:32:18;28.10;;;26.15;;
8476;SDS011;4275;42.854;23.222;2023-07-09T12:34:49;27.27;;;25.38;;
8476;SDS011;4275;42.854;23.222;2023-07-09T12:37:18;26.88;;;24.98;;
8476;SDS011;4275;42.854;23.222;2023-07-09T12:39:49;27.83;;;25.92;;
8476;SDS011;4275;42.854;23.222;2023-07-09T12:42:20;28.55;;;26.65;;
8476;SDS011;4275;42.854;23.222;2023-07-09T12:44:54;28.40;;;26.50;;
8476;SDS011;4275;42.854;23.222;2023-07-09T12:47:23;25.98;;;24.17;;
8476;SDS011;4275;42.854;23.222;2023-07-09T12:49:51;26.63;;;24.73;;
8476;SDS011;4275;42.854;23.222;2023-07-09T12:52:26;26.88;;;24.98;;
8476;SDS011;4275;42.854;23.222;2023-07-09T12:54:55;27.13;;;25.23;;
8476;SDS011;4275;42.854;23.222;2023-07-09T12:57:24;26.70;;;24.80;;
8476;SDS011;4275;42.854;23.222;2023-07-09T12:59:53;26.40;;;24.60;;
8476;SDS011;4275;42.854;23.222;2023-07-09T13:02:22;25.38;;;23.58;;
8476;SDS011;4275;42.854;23.222;2023-07-09T13:04:57;25.08;;;23.27;;
8476;SDS011;4275;42.854;23.222;2023-07-09T13:07:27;25.45;;;23.65;;
8476;SDS011;4275;42.854;23.222;2023-07-09T13:10:04;26.25;;;24.35;;
8476;SDS011;4275;42.854;23.222;2023-07-09T13:12:34;26.83;;;24.83;;
8476;SDS011;4275;42.854;23.222;2023-07-09T13:15:05;28.17;;;26.17;;
8476;SDS011;4275;42.854;23.222;2023-07-09T13:17:32;26.75;;;24.85;;
8476;SDS011;4275;42.854;23.222;2023-07-09T13:20:00;25.63;;;23.83;;
8476;SDS011;4275;42.854;23.222;2023-07-09T13:22:28;25.50;;;23.70;;
8476;SDS011;4275;42.854;23.222;2023-07-09T13:24:55;25.25;;;23.45;;
8476;SDS011;4275;42.854;23.222;2023-07-09T13:27:22;25.35;;;23.55;;
8476;SDS011;4275;42.854;23.222;2023-07-09T13:29:52;24.80;;;23.10;;
8476;SDS011;4275;42.854;23.222;2023-07-09T13:32:19;24.83;;;23.02;;
8476;SDS011;4275;42.854;23.222;2023-07-09T13:34:46;25.75;;;23.95;;
8476;SDS011;4275;42.854;23.222;2023-07-09T13:37:13;24.75;;;23.02;;
8476;SDS011;4275;42.854;23.222;2023-07-09T13:39:42;24.95;;;23.15;;
8476;SDS011;4275;42.854;23.222;2023-07-09T13:42:11;24.98;;;23.17;;
8476;SDS011;4275;42.854;23.222;2023-07-09T13:44:40;26.10;;;24.20;;
8476;SDS011;4275;42.854;23.222;2023-07-09T13:47:14;26.00;;;24.10;;
8476;SDS011;4275;42.854;23.222;2023-07-09T13:49:43;25.73;;;23.88;;
8476;SDS011;4275;42.854;23.222;2023-07-09T13:52:13;25.75;;;23.85;;
8476;SDS011;4275;42.854;23.222;2023-07-09T13:54:42;25.48;;;23.67;;
8476;SDS011;4275;42.854;23.222;2023-07-09T13:57:13;25.30;;;23.50;;
8476;SDS011;4275;42.854;23.222;2023-07-09T13:59:43;25.60;;;23.80;;
8476;SDS011;4275;42.854;23.222;2023-07-09T14:02:18;26.27;;;24.38;;
8476;SDS011;4275;42.854;23.222;2023-07-09T14:04:49;25.77;;;23.92;;
8476;SDS011;4275;42.854;23.222;2023-07-09T14:07:23;25.70;;;23.90;;
8476;SDS011;4275;42.854;23.222;2023-07-09T14:09:52;25.15;;;23.35;;
8476;SDS011;4275;42.854;23.222;2023-07-09T14:12:20;26.92;;;25.02;;
8476;SDS011;4275;42.854;23.222;2023-07-09T14:14:47;26.80;;;24.90;;
8476;SDS011;4275;42.854;23.222;2023-07-09T14:17:17;26.88;;;24.98;;
8476;SDS011;4275;42.854;23.222;2023-07-09T14:19:45;24.08;;;22.27;;
8476;SDS011;4275;42.854;23.222;2023-07-09T14:24:59;24.27;;;22.58;;
8476;SDS011;4275;42.854;23.222;2023-07-09T14:27:27;25.38;;;23.58;;
8476;SDS011;4275;42.854;23.222;2023-07-09T14:29:54;24.88;;;23.08;;
8476;SDS011;4275;42.854;23.222;2023-07-09T14:32:32;25.77;;;23.98;;
8476;SDS011;4275;42.854;23.222;2023-07-09T14:35:01;25.08;;;23.27;;
8476;SDS011;4275;42.854;23.222;2023-07-09T14:37:30;26.73;;;24.83;;
8476;SDS011;4275;42.854;23.222;2023-07-09T14:39:57;26.13;;;24.33;;
8476;SDS011;4275;42.854;23.222;2023-07-09T14:42:24;24.27;;;22.58;;
8476;SDS011;4275;42.854;23.222;2023-07-09T14:44:51;26.88;;;24.98;;
8476;SDS011;4275;42.854;23.222;2023-07-09T14:47:19;25.17;;;23.38;;
8476;SDS011;4275;42.854;23.222;2023-07-09T14:49:48;29.05;;;27.15;;
8476;SDS011;4275;42.854;23.222;2023-07-09T14:52:17;26.20;;;24.30;;
8476;SDS011;4275;42.854;23.222;2023-07-09T14:54:47;26.38;;;24.48;;
8476;SDS011;4275;42.854;23.222;2023-07-09T14:57:19;25.90;;;24.00;;
8476;SDS011;4275;42.854;23.222;2023-07-09T14:59:47;25.65;;;23.85;;
8476;SDS011;4275;42.854;23.222;2023-07-09T15:02:21;25.95;;;24.05;;
8476;SDS011;4275;42.854;23.222;2023-07-09T15:04:53;26.52;;;24.63;;
8476;SDS011;4275;42.854;23.222;2023-07-09T15:07:20;26.58;;;24.67;;
8476;SDS011;4275;42.854;23.222;2023-07-09T15:09:47;26.80;;;24.90;;
8476;SDS011;4275;42.854;23.222;2023-07-09T15:12:15;24.48;;;22.67;;
8476;SDS011;4275;42.854;23.222;2023-07-09T15:14:53;26.60;;;24.70;;
8476;SDS011;4275;42.854;23.222;2023-07-09T15:17:25;25.83;;;23.92;;
8476;SDS011;4275;42.854;23.222;2023-07-09T15:19:54;26.60;;;24.70;;
8476;SDS011;4275;42.854;23.222;2023-07-09T15:22:24;27.10;;;25.20;;
8476;SDS011;4275;42.854;23.222;2023-07-09T15:24:55;26.67;;;24.77;;
8476;SDS011;4275;42.854;23.222;2023-07-09T15:27:22;26.27;;;24.42;;
8476;SDS011;4275;42.854;23.222;2023-07-09T15:29:49;25.88;;;23.98;;
8476;SDS011;4275;42.854;23.222;2023-07-09T15:32:16;26.42;;;24.52;;
8476;SDS011;4275;42.854;23.222;2023-07-09T15:34:43;26.33;;;24.42;;
8476;SDS011;4275;42.854;23.222;2023-07-09T15:37:13;25.80;;;24.00;;
8476;SDS011;4275;42.854;23.222;2023-07-09T15:39:43;25.35;;;23.55;;
8476;SDS011;4275;42.854;23.222;2023-07-09T15:42:11;25.85;;;24.02;;
8476;SDS011;4275;42.854;23.222;2023-07-09T15:44:40;25.90;;;24.05;;
8476;SDS011;4275;42.854;23.222;2023-07-09T15:47:13;27.58;;;25.60;;
8476;SDS011;4275;42.854;23.222;2023-07-09T15:49:43;25.83;;;23.92;;
8476;SDS011;4275;42.854;23.222;2023-07-09T15:52:10;26.33;;;24.42;;
8476;SDS011;4275;42.854;23.222;2023-07-09T15:54:39;25.38;;;23.48;;
8476;SDS011;4275;42.854;23.222;2023-07-09T15:57:08;26.77;;;24.88;;